Time;durP1;ratioP1;P1;durP2;ratioP2;P2;SDS_P1;SDS_P2;PMS_P1;PMS_P2;Temp;Humidity;BMP_temperature;BMP_pressure;BME280_temperature;BME280_humidity;BME280_pressure;Samples;Min_cycle;Max_cycle;Signal;HPM_P1;HPM_P2
2023/04/27 00:02:46;;;;;;;32.38;12.70;;;;;;;;;;6268888;28;20075;-48
2023/04/27 00:05:46;;;;;;;33.92;12.35;;;;;;;;;;6267054;28;20103;-47
2023/04/27 00:08:47;;;;;;;31.95;12.52;;;;;;;;;;6266730;28;20045;-50
2023/04/27 00:11:47;;;;;;;34.13;13.55;;;;;;;;;;6268893;28;20075;-50
2023/04/27 00:14:48;;;;;;;39.03;13.07;;;;;;;;;;6268131;28;20044;-50
2023/04/27 00:17:49;;;;;;;45.08;14.32;;;;;;;;;;6266326;28;20052;-49
2023/04/27 00:20:49;;;;;;;32.78;13.95;;;;;;;;;;6267317;28;20148;-51
2023/04/27 00:23:50;;;;;;;34.50;13.20;;;;;;;;;;6268347;28;20041;-51
2023/04/27 00:26:51;;;;;;;29.75;13.70;;;;;;;;;;6263206;28;20048;-49
2023/04/27 00:29:51;;;;;;;35.03;14.25;;;;;;;;;;6269568;28;20045;-47
2023/04/27 00:32:52;;;;;;;34.03;14.50;;;;;;;;;;6272240;28;20545;-48
2023/04/27 00:35:52;;;;;;;33.35;14.48;;;;;;;;;;6270225;28;20041;-49
2023/04/27 00:38:53;;;;;;;47.65;15.98;;;;;;;;;;6272719;28;20580;-48
2023/04/27 00:41:53;;;;;;;34.95;14.88;;;;;;;;;;6272092;28;20042;-54
2023/04/27 00:44:56;;;;;;;37.42;16.08;;;;;;;;;;6273336;28;20211;-52
2023/04/27 00:47:58;;;;;;;41.80;16.42;;;;;;;;;;6270829;28;20052;-49
2023/04/27 00:50:58;;;;;;;44.13;15.35;;;;;;;;;;6273769;28;20487;-47
2023/04/27 00:53:59;;;;;;;41.33;16.23;;;;;;;;;;6272833;28;20044;-49
2023/04/27 00:57:01;;;;;;;38.63;14.90;;;;;;;;;;6270139;28;20451;-52
2023/04/27 01:00:06;;;;;;;42.65;15.85;;;;;;;;;;6271092;28;20041;-48
2023/04/27 01:03:07;;;;;;;41.85;16.15;;;;;;;;;;6275168;28;20392;-51
2023/04/27 01:06:07;;;;;;;38.20;16.00;;;;;;;;;;6269773;28;20101;-50
2023/04/27 01:09:08;;;;;;;36.75;16.08;;;;;;;;;;6277586;28;20049;-47
2023/04/27 01:12:09;;;;;;;38.80;14.90;;;;;;;;;;6271855;28;20119;-49
2023/04/27 01:15:10;;;;;;;38.67;15.80;;;;;;;;;;6268474;28;20057;-48
2023/04/27 01:18:11;;;;;;;44.45;17.05;;;;;;;;;;6271546;28;20051;-48
2023/04/27 01:21:12;;;;;;;41.30;16.67;;;;;;;;;;6271328;28;20033;-51
2023/04/27 01:24:12;;;;;;;40.33;16.13;;;;;;;;;;6270258;28;20113;-48
2023/04/27 01:27:13;;;;;;;42.70;16.52;;;;;;;;;;6267869;28;20055;-49
2023/04/27 01:30:14;;;;;;;43.13;16.48;;;;;;;;;;6271201;28;20063;-52
2023/04/27 01:33:15;;;;;;;43.33;18.00;;;;;;;;;;6271892;28;20488;-48
2023/04/27 01:36:15;;;;;;;40.08;16.77;;;;;;;;;;6269385;28;20041;-47
2023/04/27 01:39:16;;;;;;;43.00;17.52;;;;;;;;;;6269472;28;20143;-50
2023/04/27 01:42:17;;;;;;;43.42;16.95;;;;;;;;;;6268288;28;20575;-51
2023/04/27 01:45:17;;;;;;;43.42;17.40;;;;;;;;;;6268864;28;20045;-53
2023/04/27 01:48:18;;;;;;;47.28;16.92;;;;;;;;;;6271732;28;20397;-48
2023/04/27 01:51:19;;;;;;;46.75;17.58;;;;;;;;;;6273460;28;20582;-49
2023/04/27 01:54:19;;;;;;;40.67;16.88;;;;;;;;;;6277621;28;20453;-49
2023/04/27 01:57:20;;;;;;;58.97;18.40;;;;;;;;;;6282047;28;20051;-50
2023/04/27 02:00:21;;;;;;;40.83;17.02;;;;;;;;;;6269931;28;20377;-49
2023/04/27 02:03:21;;;;;;;41.03;17.55;;;;;;;;;;6269490;28;20033;-50
2023/04/27 02:06:22;;;;;;;50.25;18.92;;;;;;;;;;6269094;28;20048;-49
2023/04/27 02:09:22;;;;;;;48.72;18.02;;;;;;;;;;6269372;28;20063;-47
2023/04/27 02:12:23;;;;;;;51.05;18.48;;;;;;;;;;6269411;28;20037;-47
2023/04/27 02:15:24;;;;;;;50.67;18.10;;;;;;;;;;6266987;28;20773;-50
2023/04/27 02:18:24;;;;;;;51.85;20.17;;;;;;;;;;6275860;28;20053;-49
2023/04/27 02:21:25;;;;;;;51.38;18.65;;;;;;;;;;6270937;28;20048;-49
2023/04/27 02:24:25;;;;;;;47.17;18.80;;;;;;;;;;6268454;28;20491;-48
2023/04/27 02:27:26;;;;;;;48.05;19.80;;;;;;;;;;6268877;28;20048;-52
2023/04/27 02:30:27;;;;;;;50.35;18.23;;;;;;;;;;6268634;28;20057;-51
2023/04/27 02:33:27;;;;;;;39.47;18.52;;;;;;;;;;6266750;28;20045;-53
2023/04/27 02:36:28;;;;;;;48.42;19.98;;;;;;;;;;6266926;28;20049;-49
2023/04/27 02:39:29;;;;;;;45.92;18.45;;;;;;;;;;6270901;28;20080;-48
2023/04/27 02:42:29;;;;;;;51.40;20.25;;;;;;;;;;6270167;28;20049;-49
2023/04/27 02:45:30;;;;;;;48.60;20.50;;;;;;;;;;6267305;28;20479;-55
2023/04/27 02:48:31;;;;;;;52.67;19.15;;;;;;;;;;6267841;28;20056;-48
2023/04/27 02:51:31;;;;;;;44.38;18.35;;;;;;;;;;6269592;28;20349;-47
2023/04/27 02:54:33;;;;;;;48.70;20.63;;;;;;;;;;6268194;28;20488;-57
2023/04/27 02:57:33;;;;;;;48.27;19.23;;;;;;;;;;6268199;28;20061;-50
2023/04/27 03:00:34;;;;;;;48.22;19.67;;;;;;;;;;6265225;28;20079;-51
2023/04/27 03:03:35;;;;;;;49.17;17.98;;;;;;;;;;6270420;28;20082;-51
2023/04/27 03:06:35;;;;;;;46.58;18.92;;;;;;;;;;6277245;28;20040;-51
2023/04/27 03:09:36;;;;;;;52.38;19.02;;;;;;;;;;6266519;28;20462;-48
2023/04/27 03:12:37;;;;;;;46.97;19.17;;;;;;;;;;6266753;28;20048;-48
2023/04/27 03:15:37;;;;;;;49.25;20.08;;;;;;;;;;6266032;28;20127;-51
2023/04/27 03:18:38;;;;;;;49.63;19.02;;;;;;;;;;6269603;28;20557;-49
2023/04/27 03:21:39;;;;;;;50.03;19.73;;;;;;;;;;6267813;28;20060;-49
2023/04/27 03:24:40;;;;;;;47.38;18.58;;;;;;;;;;6265383;28;20041;-50
2023/04/27 03:27:42;;;;;;;40.53;18.23;;;;;;;;;;6266087;28;20049;-48
2023/04/27 03:30:42;;;;;;;89.95;35.92;;;;;;;;;;6265108;28;20028;-50
2023/04/27 03:33:43;;;;;;;80.55;32.20;;;;;;;;;;6266464;28;20457;-49
2023/04/27 03:36:43;;;;;;;95.63;36.60;;;;;;;;;;6268866;28;20094;-47
2023/04/27 03:39:44;;;;;;;80.10;32.63;;;;;;;;;;6266177;28;20049;-51
2023/04/27 03:42:44;;;;;;;81.10;33.10;;;;;;;;;;6266423;28;20499;-51
2023/04/27 03:45:45;;;;;;;85.75;33.85;;;;;;;;;;6264402;28;20176;-48
2023/04/27 03:48:46;;;;;;;81.75;31.25;;;;;;;;;;6265565;28;20455;-55
2023/04/27 03:51:46;;;;;;;72.88;28.52;;;;;;;;;;6268712;28;20430;-49
2023/04/27 03:54:47;;;;;;;73.97;29.58;;;;;;;;;;6267209;28;20040;-49
2023/04/27 03:57:47;;;;;;;70.70;28.25;;;;;;;;;;6267322;28;20087;-50
2023/04/27 04:00:48;;;;;;;75.75;28.88;;;;;;;;;;6267053;28;20102;-49
2023/04/27 04:03:50;;;;;;;59.60;26.27;;;;;;;;;;6284939;28;20094;-52
2023/04/27 04:06:50;;;;;;;62.03;27.05;;;;;;;;;;6274167;28;20055;-49
2023/04/27 04:09:51;;;;;;;69.07;26.58;;;;;;;;;;6266225;28;20480;-59
2023/04/27 04:12:52;;;;;;;65.47;26.70;;;;;;;;;;6264897;28;20053;-47
2023/04/27 04:16:01;;;;;;;63.03;26.02;;;;;;;;;;6265133;28;20040;-49
2023/04/27 04:19:02;;;;;;;73.85;27.70;;;;;;;;;;6266860;28;20064;-52
2023/04/27 04:22:02;;;;;;;69.20;28.83;;;;;;;;;;6264675;28;20037;-58
2023/04/27 04:25:04;;;;;;;76.47;29.63;;;;;;;;;;6266296;28;20045;-49
2023/04/27 04:28:04;;;;;;;85.03;31.10;;;;;;;;;;6263457;28;20048;-49
2023/04/27 04:31:07;;;;;;;84.45;33.22;;;;;;;;;;6267789;28;20041;-49
2023/04/27 04:34:08;;;;;;;99.63;39.63;;;;;;;;;;6268663;28;20036;-56
2023/04/27 04:37:09;;;;;;;117.60;41.73;;;;;;;;;;6263745;28;20627;-49
2023/04/27 04:40:11;;;;;;;150.13;49.72;;;;;;;;;;6266752;28;20318;-50
2023/04/27 04:43:12;;;;;;;141.23;48.22;;;;;;;;;;6270695;28;20195;-48
2023/04/27 04:46:12;;;;;;;113.65;38.95;;;;;;;;;;6264897;28;20044;-53
2023/04/27 04:49:13;;;;;;;103.22;34.80;;;;;;;;;;6266000;28;20511;-49
2023/04/27 04:52:13;;;;;;;121.53;41.65;;;;;;;;;;6266394;28;20045;-49
2023/04/27 04:55:14;;;;;;;129.23;45.72;;;;;;;;;;6265474;28;20044;-49
2023/04/27 04:58:15;;;;;;;136.60;47.42;;;;;;;;;;6265932;28;20486;-48
2023/04/27 05:01:15;;;;;;;122.20;45.63;;;;;;;;;;6264618;28;20044;-51
2023/04/27 05:04:17;;;;;;;90.85;31.58;;;;;;;;;;6268156;28;20303;-50
2023/04/27 05:07:17;;;;;;;74.07;26.90;;;;;;;;;;6264397;28;20109;-48
2023/04/27 05:10:18;;;;;;;57.15;23.13;;;;;;;;;;6265800;28;20473;-51
2023/04/27 05:13:19;;;;;;;63.10;23.80;;;;;;;;;;6263452;28;20484;-49
2023/04/27 05:16:20;;;;;;;69.83;25.03;;;;;;;;;;6267708;28;20128;-49
2023/04/27 05:19:20;;;;;;;61.13;27.25;;;;;;;;;;6266965;28;20479;-52
2023/04/27 05:22:21;;;;;;;64.03;23.65;;;;;;;;;;6275621;28;20419;-48
2023/04/27 05:25:22;;;;;;;69.22;27.52;;;;;;;;;;6280731;28;20113;-49
2023/04/27 05:28:22;;;;;;;61.33;27.50;;;;;;;;;;6285026;28;20041;-50
2023/04/27 05:31:23;;;;;;;61.95;25.35;;;;;;;;;;6287172;28;20851;-57
2023/04/27 05:34:24;;;;;;;63.05;24.08;;;;;;;;;;6282381;28;20045;-48
2023/04/27 05:37:24;;;;;;;66.95;26.55;;;;;;;;;;6278732;28;20094;-54
2023/04/27 05:40:25;;;;;;;67.00;25.23;;;;;;;;;;6285548;28;20044;-55
2023/04/27 05:43:26;;;;;;;60.05;25.27;;;;;;;;;;6281691;28;20067;-52
2023/04/27 05:46:26;;;;;;;65.03;23.70;;;;;;;;;;6279259;28;20500;-52
2023/04/27 05:49:27;;;;;;;62.42;24.13;;;;;;;;;;6283061;28;20041;-50
2023/04/27 05:52:29;;;;;;;61.10;22.38;;;;;;;;;;6281973;28;20095;-50
2023/04/27 05:55:30;;;;;;;60.97;22.58;;;;;;;;;;6280988;28;20094;-50
2023/04/27 05:58:34;;;;;;;58.53;21.10;;;;;;;;;;6290756;28;20460;-50
2023/04/27 06:01:35;;;;;;;57.13;21.30;;;;;;;;;;6276503;28;20077;-51
2023/04/27 06:04:36;;;;;;;63.90;20.85;;;;;;;;;;6269992;28;20419;-47
2023/04/27 06:07:36;;;;;;;55.47;19.42;;;;;;;;;;6265109;28;20045;-54
2023/04/27 06:10:38;;;;;;;50.60;19.27;;;;;;;;;;6267481;28;20175;-50
2023/04/27 06:13:39;;;;;;;47.22;18.15;;;;;;;;;;6268678;28;20042;-51
2023/04/27 06:16:39;;;;;;;43.35;18.48;;;;;;;;;;6268642;28;20589;-50
2023/04/27 06:19:40;;;;;;;47.00;17.35;;;;;;;;;;6265833;28;20057;-47
2023/04/27 06:22:41;;;;;;;46.90;17.27;;;;;;;;;;6269732;28;20048;-53
2023/04/27 06:25:41;;;;;;;48.63;17.20;;;;;;;;;;6267931;28;20051;-52
2023/04/27 06:28:42;;;;;;;53.05;16.90;;;;;;;;;;6267059;28;20071;-49
2023/04/27 06:31:42;;;;;;;47.83;16.50;;;;;;;;;;6268949;28;20049;-48
2023/04/27 06:34:43;;;;;;;45.05;16.45;;;;;;;;;;6269496;28;20033;-56
2023/04/27 06:37:44;;;;;;;42.47;16.02;;;;;;;;;;6268933;28;20530;-55
2023/04/27 06:40:49;;;;;;;53.10;16.42;;;;;;;;;;6267277;28;20056;-48
2023/04/27 06:43:50;;;;;;;48.08;18.05;;;;;;;;;;6270201;28;20242;-56
2023/04/27 06:46:50;;;;;;;37.13;14.93;;;;;;;;;;6268842;28;20270;-47
2023/04/27 06:49:51;;;;;;;58.50;17.85;;;;;;;;;;6267208;28;20049;-50
2023/04/27 06:52:51;;;;;;;43.78;17.85;;;;;;;;;;6269903;28;20609;-49
2023/04/27 06:55:52;;;;;;;51.83;16.73;;;;;;;;;;6268007;28;20135;-50
2023/04/27 06:58:53;;;;;;;40.72;14.27;;;;;;;;;;6268152;28;20057;-51
2023/04/27 07:01:53;;;;;;;41.47;15.13;;;;;;;;;;6266031;28;20522;-48
2023/04/27 07:04:54;;;;;;;39.15;14.75;;;;;;;;;;6265548;28;20053;-48
2023/04/27 07:07:54;;;;;;;40.15;14.57;;;;;;;;;;6265429;28;20048;-50
2023/04/27 07:10:55;;;;;;;30.05;12.10;;;;;;;;;;6269317;28;20033;-48
2023/04/27 07:13:55;;;;;;;35.83;11.90;;;;;;;;;;6268668;28;20049;-47
2023/04/27 07:16:56;;;;;;;38.00;13.10;;;;;;;;;;6266475;28;20122;-58
2023/04/27 07:19:57;;;;;;;31.50;12.40;;;;;;;;;;6266564;28;20518;-48
2023/04/27 07:22:57;;;;;;;37.38;13.23;;;;;;;;;;6268444;28;20415;-52
2023/04/27 07:25:58;;;;;;;47.50;15.25;;;;;;;;;;6266278;28;20128;-48
2023/04/27 07:28:59;;;;;;;29.15;10.82;;;;;;;;;;6267508;28;20048;-50
2023/04/27 07:31:59;;;;;;;29.27;9.70;;;;;;;;;;6265006;28;20048;-47
2023/04/27 07:35:00;;;;;;;22.30;7.72;;;;;;;;;;6265975;28;20062;-50
2023/04/27 07:38:01;;;;;;;27.42;9.00;;;;;;;;;;6267929;28;20083;-49
2023/04/27 07:41:04;;;;;;;26.67;9.93;;;;;;;;;;6263447;28;20040;-50
2023/04/27 07:44:04;;;;;;;;;;;;;;;;;;6268836;28;20037;-49
2023/04/27 07:47:05;;;;;;;26.58;9.57;;;;;;;;;;6263830;28;20484;-57
2023/04/27 07:50:06;;;;;;;29.23;9.65;;;;;;;;;;6269592;28;20032;-52
2023/04/27 07:53:07;;;;;;;33.22;9.73;;;;;;;;;;6268774;28;20250;-50
2023/04/27 07:56:08;;;;;;;28.17;9.57;;;;;;;;;;6265187;28;20556;-49
2023/04/27 07:59:09;;;;;;;22.52;8.65;;;;;;;;;;6268220;28;20055;-50
2023/04/27 08:02:10;;;;;;;32.05;10.75;;;;;;;;;;6265745;28;20041;-48
2023/04/27 08:05:11;;;;;;;23.95;10.68;;;;;;;;;;6265295;28;20677;-49
2023/04/27 08:08:11;;;;;;;24.38;8.82;;;;;;;;;;6266328;28;20507;-49
2023/04/27 08:11:12;;;;;;;28.50;8.95;;;;;;;;;;6265948;28;20786;-53
2023/04/27 08:14:12;;;;;;;19.00;7.32;;;;;;;;;;6265213;28;20063;-54
2023/04/27 08:17:13;;;;;;;14.75;6.65;;;;;;;;;;6266691;28;20072;-48
2023/04/27 08:20:13;;;;;;;20.95;6.78;;;;;;;;;;6267000;28;20131;-53
2023/04/27 08:23:14;;;;;;;22.05;7.88;;;;;;;;;;6265154;28;20384;-57
2023/04/27 08:26:15;;;;;;;19.33;7.57;;;;;;;;;;6267878;28;20045;-53
2023/04/27 08:29:16;;;;;;;17.05;7.18;;;;;;;;;;6267419;28;20630;-49
2023/04/27 08:32:16;;;;;;;23.60;7.55;;;;;;;;;;6268465;28;20037;-49
2023/04/27 08:35:17;;;;;;;20.20;7.82;;;;;;;;;;6261653;28;20049;-53
2023/04/27 08:38:18;;;;;;;21.50;7.53;;;;;;;;;;6263493;28;20082;-50
2023/04/27 08:41:20;;;;;;;20.65;7.65;;;;;;;;;;6264079;28;20055;-49
2023/04/27 08:44:21;;;;;;;;;;;;;;;;;;6266987;28;20404;-48
2023/04/27 08:47:21;;;;;;;19.50;7.72;;;;;;;;;;6263888;28;19936;-48
2023/04/27 08:50:23;;;;;;;16.60;7.20;;;;;;;;;;6268651;28;20063;-50
2023/04/27 08:53:23;;;;;;;20.03;8.73;;;;;;;;;;6270498;28;20403;-51
2023/04/27 08:56:26;;;;;;;20.52;8.35;;;;;;;;;;6269485;28;20039;-49
2023/04/27 08:59:27;;;;;;;19.20;7.50;;;;;;;;;;6271643;28;20484;-49
2023/04/27 09:02:28;;;;;;;20.05;7.05;;;;;;;;;;6273060;28;20052;-52
2023/04/27 09:05:29;;;;;;;17.07;7.00;;;;;;;;;;6269031;28;20143;-54
2023/04/27 09:08:48;;;;;;;21.02;7.13;;;;;;;;;;6269370;28;20056;-58
2023/04/27 09:11:48;;;;;;;22.95;8.15;;;;;;;;;;6267368;28;20106;-54
2023/04/27 09:15:00;;;;;;;21.00;8.05;;;;;;;;;;6271643;28;20044;-48
2023/04/27 09:18:00;;;;;;;20.73;7.10;;;;;;;;;;6269064;28;20385;-49
2023/04/27 09:21:03;;;;;;;18.42;7.70;;;;;;;;;;6268260;28;20041;-51
2023/04/27 09:24:14;;;;;;;18.73;7.53;;;;;;;;;;6271705;28;20036;-48
2023/04/27 09:27:20;;;;;;;16.33;6.97;;;;;;;;;;6270448;28;20114;-52
2023/04/27 09:30:21;;;;;;;19.90;8.13;;;;;;;;;;6269977;28;20500;-49
2023/04/27 09:33:26;;;;;;;18.35;7.10;;;;;;;;;;6270529;28;20036;-49
2023/04/27 09:36:29;;;;;;;23.20;7.70;;;;;;;;;;6271013;28;20080;-48
2023/04/27 09:39:30;;;;;;;18.40;8.27;;;;;;;;;;6269908;28;20798;-52
2023/04/27 09:42:31;;;;;;;16.50;7.25;;;;;;;;;;6267902;28;20048;-56
2023/04/27 09:45:32;;;;;;;18.20;8.07;;;;;;;;;;6269043;28;20404;-55
2023/04/27 09:48:33;;;;;;;18.45;8.10;;;;;;;;;;6270764;28;20049;-47
2023/04/27 09:51:33;;;;;;;18.45;8.13;;;;;;;;;;6275973;28;20218;-50
2023/04/27 09:54:35;;;;;;;25.55;9.27;;;;;;;;;;6290542;28;20078;-48
2023/04/27 09:57:57;;;;;;;22.58;8.68;;;;;;;;;;6269673;28;20488;-48
2023/04/27 10:01:07;;;;;;;17.88;7.13;;;;;;;;;;6264634;28;20052;-51
2023/04/27 10:04:12;;;;;;;19.92;8.75;;;;;;;;;;6267433;28;20044;-48
2023/04/27 10:07:14;;;;;;;18.42;7.40;;;;;;;;;;6266070;28;20056;-49
2023/04/27 10:10:19;;;;;;;16.50;7.88;;;;;;;;;;6269185;28;20033;-48
2023/04/27 10:13:23;;;;;;;19.02;7.38;;;;;;;;;;6268369;28;20148;-52
2023/04/27 10:16:23;;;;;;;20.20;8.18;;;;;;;;;;6266270;28;20043;-51
2023/04/27 10:19:24;;;;;;;19.35;8.75;;;;;;;;;;6265749;28;20374;-48
2023/04/27 10:22:43;;;;;;;20.42;7.45;;;;;;;;;;6266592;28;20151;-48
2023/04/27 10:25:46;;;;;;;17.27;8.60;;;;;;;;;;6272440;28;20053;-49
2023/04/27 10:29:03;;;;;;;19.08;7.82;;;;;;;;;;6281957;28;20132;-50
2023/04/27 10:32:27;;;;;;;24.77;8.57;;;;;;;;;;6285919;28;20102;-51
2023/04/27 10:35:43;;;;;;;20.58;7.35;;;;;;;;;;6276977;28;20047;-49
2023/04/27 10:38:44;;;;;;;18.25;6.97;;;;;;;;;;6274620;28;20476;-54
2023/04/27 10:41:49;;;;;;;17.65;7.28;;;;;;;;;;6270205;28;20048;-49
2023/04/27 10:44:56;;;;;;;15.07;7.00;;;;;;;;;;6275674;28;20050;-48
2023/04/27 10:47:59;;;;;;;17.50;7.30;;;;;;;;;;6289559;28;20166;-52
2023/04/27 10:51:00;;;;;;;20.52;8.13;;;;;;;;;;6267995;28;20547;-46
2023/04/27 10:54:00;;;;;;;14.80;6.53;;;;;;;;;;6268399;28;20049;-49
2023/04/27 10:57:06;;;;;;;15.07;7.85;;;;;;;;;;6277159;28;20029;-50
2023/04/27 11:00:09;;;;;;;19.27;7.80;;;;;;;;;;6276539;28;20052;-49
2023/04/27 11:03:15;;;;;;;16.85;6.65;;;;;;;;;;6265911;28;20044;-56
2023/04/27 11:06:16;;;;;;;16.83;7.80;;;;;;;;;;6265375;28;20057;-50
2023/04/27 11:09:26;;;;;;;17.98;8.20;;;;;;;;;;6271881;28;20105;-51
2023/04/27 11:12:27;;;;;;;17.58;7.43;;;;;;;;;;6286340;28;20122;-48
2023/04/27 11:15:28;;;;;;;17.50;8.15;;;;;;;;;;6271853;28;20045;-46
2023/04/27 11:18:34;;;;;;;19.98;7.82;;;;;;;;;;6264593;28;20041;-52
2023/04/27 11:21:35;;;;;;;16.52;8.02;;;;;;;;;;6269273;28;20802;-49
2023/04/27 11:24:35;;;;;;;18.40;7.57;;;;;;;;;;6263299;28;20053;-48
2023/04/27 11:27:38;;;;;;;14.23;7.38;;;;;;;;;;6264879;28;20056;-50
2023/04/27 11:30:38;;;;;;;17.63;7.70;;;;;;;;;;6264555;28;20053;-53
2023/04/27 11:33:47;;;;;;;19.67;9.23;;;;;;;;;;6272283;28;20119;-47
2023/04/27 11:37:02;;;;;;;19.50;8.02;;;;;;;;;;6265410;28;20048;-48
2023/04/27 11:40:03;;;;;;;19.02;8.45;;;;;;;;;;6267361;28;20045;-57
2023/04/27 11:43:04;;;;;;;16.17;7.00;;;;;;;;;;6266435;28;20041;-49
2023/04/27 11:46:09;;;;;;;14.57;6.60;;;;;;;;;;6266275;28;20076;-48
2023/04/27 11:49:11;;;;;;;14.30;6.63;;;;;;;;;;6266585;28;20171;-53
2023/04/27 11:52:12;;;;;;;16.42;5.93;;;;;;;;;;6267613;28;20048;-47
2023/04/27 11:55:14;;;;;;;14.93;5.57;;;;;;;;;;6271713;28;20037;-48
2023/04/27 11:58:15;;;;;;;;;;;;;;;;;;6275607;28;20963;-50
2023/04/27 12:01:15;;;;;;;19.63;6.63;;;;;;;;;;6263273;28;19927;-47
2023/04/27 12:04:16;;;;;;;12.55;6.57;;;;;;;;;;6265675;28;20040;-49
2023/04/27 12:07:18;;;;;;;12.90;6.60;;;;;;;;;;6271355;28;20052;-55
2023/04/27 12:10:18;;;;;;;19.80;8.05;;;;;;;;;;6264060;28;21412;-53
2023/04/27 12:13:19;;;;;;;17.65;8.05;;;;;;;;;;6268073;28;20048;-50
2023/04/27 12:16:21;;;;;;;17.70;7.93;;;;;;;;;;6266048;28;20053;-50
2023/04/27 12:19:23;;;;;;;18.20;8.50;;;;;;;;;;6266711;28;20117;-51
2023/04/27 12:22:24;;;;;;;23.90;9.05;;;;;;;;;;6267092;28;20351;-47
2023/04/27 12:25:25;;;;;;;17.88;8.40;;;;;;;;;;6269881;28;20260;-49
2023/04/27 12:28:26;;;;;;;20.02;8.55;;;;;;;;;;6276214;28;20052;-48
2023/04/27 12:31:27;;;;;;;19.40;8.05;;;;;;;;;;6277445;28;20922;-52
2023/04/27 12:34:28;;;;;;;20.98;8.18;;;;;;;;;;6280432;28;20194;-48
2023/04/27 12:37:28;;;;;;;19.30;8.30;;;;;;;;;;6275909;28;20052;-49
2023/04/27 12:40:29;;;;;;;21.75;8.45;;;;;;;;;;6267689;28;20064;-48
2023/04/27 12:43:29;;;;;;;17.67;9.15;;;;;;;;;;6272722;28;20055;-48
2023/04/27 12:46:31;;;;;;;19.08;8.98;;;;;;;;;;6274272;28;20041;-51
2023/04/27 12:49:31;;;;;;;20.33;8.65;;;;;;;;;;6269568;28;20055;-48
2023/04/27 12:52:32;;;;;;;20.42;8.40;;;;;;;;;;6269583;28;20048;-47
2023/04/27 12:55:32;;;;;;;17.30;7.88;;;;;;;;;;6272575;28;20045;-48
2023/04/27 12:58:33;;;;;;;17.13;7.78;;;;;;;;;;6273267;28;20590;-50
2023/04/27 13:01:34;;;;;;;18.45;7.75;;;;;;;;;;6270373;28;20063;-47
2023/04/27 13:04:35;;;;;;;15.02;7.65;;;;;;;;;;6272891;28;20055;-50
2023/04/27 13:07:35;;;;;;;14.07;7.13;;;;;;;;;;6271075;28;20613;-49
2023/04/27 13:10:36;;;;;;;15.77;8.13;;;;;;;;;;6267158;28;20534;-49
2023/04/27 13:13:40;;;;;;;18.88;7.25;;;;;;;;;;6272208;28;20921;-47
2023/04/27 13:16:41;;;;;;;16.65;7.53;;;;;;;;;;6275897;28;20143;-50
2023/04/27 13:19:42;;;;;;;13.10;7.32;;;;;;;;;;6273249;28;20537;-47
2023/04/27 13:22:43;;;;;;;13.02;6.97;;;;;;;;;;6270572;28;20054;-52
2023/04/27 13:25:44;;;;;;;21.83;9.18;;;;;;;;;;6273434;28;20703;-51
2023/04/27 13:28:45;;;;;;;19.48;8.13;;;;;;;;;;6270876;28;20049;-52
2023/04/27 13:31:45;;;;;;;13.45;7.97;;;;;;;;;;6271726;28;20159;-50
2023/04/27 13:34:46;;;;;;;18.20;9.02;;;;;;;;;;6271901;28;20051;-52
2023/04/27 13:37:52;;;;;;;24.70;9.18;;;;;;;;;;6270801;28;20040;-48
2023/04/27 13:40:53;;;;;;;20.38;7.93;;;;;;;;;;6269462;28;20165;-52
2023/04/27 13:43:53;;;;;;;15.65;7.50;;;;;;;;;;6275092;28;20111;-50
2023/04/27 13:46:54;;;;;;;19.52;7.82;;;;;;;;;;6272934;28;20044;-49
2023/04/27 13:49:55;;;;;;;18.50;7.32;;;;;;;;;;6270489;28;20040;-50
2023/04/27 13:52:56;;;;;;;13.98;7.00;;;;;;;;;;6269262;28;20064;-46
2023/04/27 13:55:57;;;;;;;16.30;7.00;;;;;;;;;;6271061;28;20045;-47
2023/04/27 13:58:57;;;;;;;17.23;7.53;;;;;;;;;;6269198;28;20049;-49
2023/04/27 14:01:58;;;;;;;19.30;8.20;;;;;;;;;;6267152;28;20049;-50
2023/04/27 14:04:58;;;;;;;17.50;6.80;;;;;;;;;;6273233;28;20057;-48
2023/04/27 14:07:59;;;;;;;19.35;8.18;;;;;;;;;;6274062;28;20056;-48
2023/04/27 14:11:00;;;;;;;16.98;8.27;;;;;;;;;;6267422;28;20049;-50
2023/04/27 14:14:00;;;;;;;14.95;6.63;;;;;;;;;;6271747;28;20096;-52
2023/04/27 14:17:01;;;;;;;17.08;8.25;;;;;;;;;;6270447;28;20052;-48
2023/04/27 14:20:05;;;;;;;13.30;7.03;;;;;;;;;;6269753;28;20048;-50
2023/04/27 14:23:06;;;;;;;17.50;7.32;;;;;;;;;;6274640;28;20048;-47
2023/04/27 14:26:08;;;;;;;16.33;7.10;;;;;;;;;;6281190;28;20067;-50
2023/04/27 14:29:11;;;;;;;15.52;7.10;;;;;;;;;;6277220;28;20049;-48
2023/04/27 14:32:12;;;;;;;12.98;6.85;;;;;;;;;;6274612;28;20041;-47
2023/04/27 14:35:12;;;;;;;15.02;6.78;;;;;;;;;;6278652;28;20052;-49
2023/04/27 14:38:13;;;;;;;13.38;6.60;;;;;;;;;;6278619;28;20049;-49
2023/04/27 14:41:13;;;;;;;15.77;6.88;;;;;;;;;;6273646;28;20098;-51
2023/04/27 14:44:14;;;;;;;14.38;6.90;;;;;;;;;;6277430;28;20478;-49
2023/04/27 14:47:15;;;;;;;13.98;6.28;;;;;;;;;;6276796;28;20045;-50
2023/04/27 14:50:16;;;;;;;20.02;7.32;;;;;;;;;;6274809;28;20079;-49
2023/04/27 14:53:16;;;;;;;16.77;6.72;;;;;;;;;;6275655;28;20127;-48
2023/04/27 14:56:17;;;;;;;13.15;6.80;;;;;;;;;;6279163;28;20118;-51
2023/04/27 14:59:17;;;;;;;14.98;7.47;;;;;;;;;;6276861;28;20056;-48
2023/04/27 15:02:18;;;;;;;14.35;6.55;;;;;;;;;;6274432;28;20139;-47
2023/04/27 15:05:18;;;;;;;13.98;6.45;;;;;;;;;;6279131;28;20510;-47
2023/04/27 15:08:19;;;;;;;19.67;9.20;;;;;;;;;;6275451;28;20053;-52
2023/04/27 15:11:20;;;;;;;15.35;7.00;;;;;;;;;;6272831;28;20033;-49
2023/04/27 15:14:21;;;;;;;13.73;6.95;;;;;;;;;;6277132;28;20045;-49
2023/04/27 15:17:22;;;;;;;16.55;7.40;;;;;;;;;;6279227;28;20047;-47
2023/04/27 15:20:23;;;;;;;13.07;6.57;;;;;;;;;;6276007;28;20056;-49
2023/04/27 15:23:26;;;;;;;10.88;6.00;;;;;;;;;;6278711;28;20040;-50
2023/04/27 15:26:27;;;;;;;13.40;6.15;;;;;;;;;;6278028;28;20045;-51
2023/04/27 15:29:27;;;;;;;14.57;7.28;;;;;;;;;;6277525;28;20434;-52
2023/04/27 15:32:29;;;;;;;12.43;6.45;;;;;;;;;;6276377;28;20044;-51
2023/04/27 15:35:30;;;;;;;17.08;6.97;;;;;;;;;;6280738;28;20055;-51
2023/04/27 15:38:31;;;;;;;11.57;6.88;;;;;;;;;;6280121;28;20037;-49
2023/04/27 15:41:31;;;;;;;13.13;6.38;;;;;;;;;;6278136;28;20040;-48
2023/04/27 15:44:32;;;;;;;12.95;6.72;;;;;;;;;;6279430;28;20083;-48
2023/04/27 15:47:32;;;;;;;10.60;6.05;;;;;;;;;;6279247;28;20057;-49
2023/04/27 15:50:33;;;;;;;12.80;5.95;;;;;;;;;;6275588;28;20168;-53
2023/04/27 15:53:34;;;;;;;10.40;6.00;;;;;;;;;;6278490;28;20098;-49
2023/04/27 15:56:34;;;;;;;14.32;6.50;;;;;;;;;;6288612;28;20147;-53
2023/04/27 15:59:35;;;;;;;14.20;6.85;;;;;;;;;;6286074;28;20544;-50
2023/04/27 16:02:37;;;;;;;13.25;6.43;;;;;;;;;;6283886;28;20139;-49
2023/04/27 16:05:37;;;;;;;14.75;6.10;;;;;;;;;;6282929;28;20106;-48
2023/04/27 16:08:38;;;;;;;14.05;6.18;;;;;;;;;;6285598;28;20127;-50
2023/04/27 16:11:39;;;;;;;12.52;5.63;;;;;;;;;;6282310;28;20047;-49
2023/04/27 16:14:40;;;;;;;13.82;6.10;;;;;;;;;;6284332;28;20052;-50
2023/04/27 16:17:40;;;;;;;16.55;7.97;;;;;;;;;;6283083;28;20102;-53
2023/04/27 16:20:41;;;;;;;13.82;6.13;;;;;;;;;;6283316;28;20167;-51
2023/04/27 16:23:41;;;;;;;12.10;6.40;;;;;;;;;;6281435;28;20439;-50
2023/04/27 16:26:42;;;;;;;12.70;7.38;;;;;;;;;;6290049;28;20052;-47
2023/04/27 16:29:42;;;;;;;14.88;7.47;;;;;;;;;;6284900;28;20499;-48
2023/04/27 16:32:43;;;;;;;12.70;6.82;;;;;;;;;;6279595;28;20147;-48
2023/04/27 16:35:44;;;;;;;16.80;7.30;;;;;;;;;;6284323;28;20040;-48
2023/04/27 16:38:45;;;;;;;13.98;6.85;;;;;;;;;;6280153;28;20048;-49
2023/04/27 16:41:46;;;;;;;14.95;6.22;;;;;;;;;;6281712;28;20610;-49
2023/04/27 16:44:47;;;;;;;15.00;6.93;;;;;;;;;;6286308;28;20052;-51
2023/04/27 16:47:47;;;;;;;12.48;6.10;;;;;;;;;;6286021;28;20059;-49
2023/04/27 16:50:48;;;;;;;17.02;6.70;;;;;;;;;;6282896;28;20051;-48
2023/04/27 16:53:49;;;;;;;18.23;7.32;;;;;;;;;;6285096;28;20497;-49
2023/04/27 16:56:50;;;;;;;13.80;6.43;;;;;;;;;;6283870;28;20040;-51
2023/04/27 16:59:52;;;;;;;14.50;7.30;;;;;;;;;;6279443;28;20411;-49
2023/04/27 17:02:53;;;;;;;;;;;;;;;;;;6281916;28;20503;-48
2023/04/27 17:05:53;;;;;;;15.77;7.80;;;;;;;;;;6283384;28;19924;-51
2023/04/27 17:08:55;;;;;;;14.63;7.05;;;;;;;;;;6286514;28;21338;-49
2023/04/27 17:11:55;;;;;;;25.15;8.65;;;;;;;;;;6284368;28;20481;-48
2023/04/27 17:14:56;;;;;;;20.75;8.50;;;;;;;;;;6293507;28;20048;-47
2023/04/27 17:17:57;;;;;;;16.65;7.85;;;;;;;;;;6285274;28;20052;-48
2023/04/27 17:20:59;;;;;;;15.57;7.17;;;;;;;;;;6281003;28;20059;-47
2023/04/27 17:23:59;;;;;;;11.15;6.57;;;;;;;;;;6283423;28;20813;-52
2023/04/27 17:27:00;;;;;;;11.68;6.20;;;;;;;;;;6287532;28;20040;-48
2023/04/27 17:30:01;;;;;;;12.23;6.40;;;;;;;;;;6288526;28;20043;-51
2023/04/27 17:33:02;;;;;;;13.27;6.10;;;;;;;;;;6287985;28;20036;-46
2023/04/27 17:36:03;;;;;;;11.60;5.60;;;;;;;;;;6287296;28;20043;-54
2023/04/27 17:39:04;;;;;;;16.17;6.28;;;;;;;;;;6288377;28;20044;-49
2023/04/27 17:42:05;;;;;;;12.02;5.53;;;;;;;;;;6285828;28;20690;-47
2023/04/27 17:45:07;;;;;;;10.93;5.75;;;;;;;;;;6281204;28;20044;-51
2023/04/27 17:48:07;;;;;;;11.95;6.35;;;;;;;;;;6287307;28;20044;-48